Latest Weather Observations for Coonawarra

IDS60801

Issued at 9:01 pm CST Wednesday 27 July 2016 (issued every 30 minutes, with the page automatically refreshed every 10 minutes)

About weather observations | Map of weather stations | Latest weather observations for SA | Other Formats
Station Details ID: 026091 Name: COONAWARRA Lat: -37.29 Lon: 140.83 Height: 57.0 m
Data from the previous 72 hours. | See also: Recent months at Coonawarra
Date/Time
CST
Temp
°C
App
Temp
°C
Dew
Point
°C
Rel
Hum
%
Delta-T
°C
Wind Press
QNH
hPa
Press
MSL
hPa
Rain since
9am
mm
Dir  Spd
km/h
Gust
km/h
Spd
kts
Gust
kts
27/09:00pm 9.7 6.5 6.9 83 1.3 NW 13 17 7 9 1024.2 1024.3 0.0
27/08:30pm 9.6 6.5 7.3 85 1.1 NW 13 17 7 9 1024.2 1024.3 0.0
27/08:00pm 9.7 6.6 7.2 84 1.2 NW 13 17 7 9 1024.3 1024.4 0.0
27/07:30pm 9.8 5.6 7.3 84 1.2 WNW 19 28 10 15 1024.1 1024.2 0.0
27/07:00pm 9.2 6.2 7.9 92 0.6 NW 13 15 7 8 1023.6 1023.7 0.0
27/06:30pm 9.2 6.2 7.9 92 0.6 NW 13 15 7 8 1023.1 1023.3 0.0
27/06:00pm 9.8 6.3 7.3 84 1.2 WNW 15 24 8 13 1023.2 1023.4 0.0
27/05:30pm 9.6 6.9 7.3 85 1.1 NW 11 15 6 8 1022.4 1022.5 0.0
27/05:00pm 9.8 6.3 7.0 83 1.3 NW 15 19 8 10 1022.2 1022.3 0.0
27/04:30pm 10.4 5.4 6.3 76 1.9 WSW 22 35 12 19 1022.2 1022.3 0.0
27/04:00pm 11.4 7.6 5.6 67 2.7 W 15 20 8 11 1021.8 1021.9 0.0
27/03:30pm 11.3 7.0 5.4 67 2.7 W 17 24 9 13 1021.8 1021.9 0.0
27/03:00pm 10.9 6.2 6.2 73 2.2 W 20 33 11 18 1021.6 1021.7 0.0
27/02:30pm 11.6 6.2 4.5 61 3.2 W 22 32 12 17 1021.2 1021.3 0.0
27/02:00pm 12.9 6.7 4.1 55 4.0 WSW 26 39 14 21 1020.7 1020.8 0.0
27/01:30pm 11.8 5.4 3.1 55 3.8 WSW 26 35 14 19 1020.5 1020.6 0.0
27/01:00pm 11.7 5.4 3.6 57 3.6 WSW 26 35 14 19 1020.2 1020.3 0.0
27/12:30pm 11.9 6.9 4.4 60 3.4 WSW 20 30 11 16 1020.3 1020.4 0.0
27/12:00pm 10.6 5.1 3.8 63 3.0 WSW 22 30 12 16 1020.4 1020.5 0.0
27/11:30am 11.0 4.5 2.7 56 3.6 SW 26 33 14 18 1020.4 1020.5 0.0
27/11:00am 10.7 5.2 4.2 64 2.9 WSW 22 30 12 16 1020.3 1020.4 0.0
27/10:30am 10.3 5.9 4.5 67 2.6 WSW 17 24 9 13 1020.0 1020.1 0.0
27/10:00am 9.9 5.9 4.8 70 2.3 SW 15 24 8 13 1019.5 1019.6 0.0
27/09:30am 9.5 5.1 4.8 72 2.1 SW 17 20 9 11 1019.1 1019.2 0.0
27/09:00am 9.6 5.7 5.2 74 2.0 WSW 15 19 8 10 1018.6 1018.7 7.8
27/08:30am 8.6 4.6 4.8 77 1.7 WSW 15 19 8 10 1017.9 1018.0 7.8
27/08:00am 7.7 4.0 4.5 80 1.4 WSW 13 19 7 10 1017.5 1017.6 7.8
27/07:30am 8.5 2.5 3.1 69 2.3 SSW 24 35 13 19 1017.0 1017.1 7.8
27/07:00am 6.9 3.2 4.6 85 1.0 WSW 13 17 7 9 1016.3 1016.4 7.8
27/06:30am 7.3 3.7 5.0 85 1.0 WSW 13 17 7 9 1015.5 1015.6 7.8
27/06:00am 7.8 2.9 5.3 84 1.1 SW 20 32 11 17 1014.8 1014.9 7.8
27/05:30am 8.6 3.4 5.3 80 1.5 SW 22 37 12 20 1014.1 1014.2 7.8
27/05:00am 8.6 3.8 5.7 82 1.3 SSW 20 28 11 15 1013.1 1013.2 7.8
27/04:30am 9.0 2.9 6.4 84 1.2 SW 28 37 15 20 1012.1 1012.2 7.8
27/04:00am 9.2 4.1 7.7 90 0.7 SW 24 37 13 20 1011.2 1011.3 7.8
27/03:30am 9.4 4.8 8.2 92 0.6 SW 22 32 12 17 1010.4 1010.5 7.8
27/03:00am 8.6 4.8 7.5 93 0.5 WSW 17 20 9 11 1009.7 1009.8 7.6
27/02:30am 7.9 4.7 7.0 94 0.4 WNW 13 15 7 8 1009.2 1009.3 7.6
27/02:00am 8.3 4.4 7.2 93 0.5 W 17 20 9 11 1008.5 1008.5 7.6
27/01:30am 7.8 4.6 6.9 94 0.4 WNW 13 17 7 9 1007.9 1007.9 7.6
27/01:00am 8.7 5.0 7.9 95 0.4 WNW 17 24 9 13 1007.4 1007.4 7.6
27/12:30am 8.0 4.5 7.1 94 0.4 WNW 15 19 8 10 1007.0 1007.0 7.4
27/12:00am 8.5 5.2 7.9 96 0.3 WNW 15 20 8 11 1006.6 1006.6 7.4
 
Date/Time
CST
Temp
°C
App
Temp
°C
Dew
Point
°C
Rel
Hum
%
Delta-T
°C
Wind Press
QNH
hPa
Press
MSL
hPa
Rain since
9am
mm
Dir  Spd
km/h
Gust
km/h
Spd
kts
Gust
kts
26/11:30pm 8.2 5.2 7.6 96 0.3 WNW 13 17 7 9 1006.0 1006.0 7.4
26/11:00pm 8.4 5.0 7.8 96 0.3 WNW 15 20 8 11 1005.5 1005.5 7.4
26/10:30pm 8.4 5.0 7.8 96 0.3 NW 15 19 8 10 1005.0 1005.1 7.2
26/10:00pm 7.9 4.5 7.5 97 0.2 NNW 15 20 8 11 1004.3 1004.4 7.0
26/09:30pm 8.0 4.2 7.4 96 0.3 NNW 17 20 9 11 1003.9 1004.0 7.0
26/09:00pm 8.3 3.9 7.5 95 0.4 NNW 20 28 11 15 1003.7 1003.8 6.6
26/08:30pm 8.2 3.0 7.1 93 0.5 NNW 24 35 13 19 1003.5 1003.6 6.6
26/08:00pm 8.2 2.1 6.7 90 0.7 N 28 37 15 20 1003.1 1003.2 6.4
26/07:30pm 8.5 1.2 7.2 91 0.6 N 35 50 19 27 1003.0 1003.1 6.4
26/07:24pm 8.6 1.8 7.1 90 0.7 N 32 50 17 27 1003.1 1003.2 6.4
26/07:00pm 8.6 1.7 7.1 90 0.7 N 33 48 18 26 1003.4 1003.5 6.4
26/06:30pm 8.6 3.3 6.7 88 0.9 N 24 41 13 22 1003.5 1003.6 5.8
26/06:00pm 8.6 3.3 6.9 89 0.8 N 24 35 13 19 1003.6 1003.7 5.8
26/05:30pm 8.8 2.8 6.9 88 0.9 N 28 37 15 20 1004.0 1004.1 5.2
26/05:00pm 8.7 2.4 7.2 90 0.7 N 30 44 16 24 1004.2 1004.3 5.2
26/04:30pm 8.7 3.5 7.4 91 0.6 NNW 24 33 13 18 1004.8 1004.9 5.0
26/04:00pm 8.9 2.2 7.4 90 0.7 NNW 32 56 17 30 1005.4 1005.4 3.2
26/03:55pm 9.0 3.1 7.3 89 0.8 N 28 56 15 30 1005.5 1005.5 2.8
26/03:30pm 9.4 3.4 6.9 84 1.2 N 28 43 15 23 1005.8 1005.8 1.4
26/03:00pm 9.5 3.2 7.2 85 1.1 N 30 46 16 25 1006.4 1006.4 1.2
26/02:30pm 9.3 2.6 7.2 87 1.0 NNW 32 50 17 27 1007.0 1007.0 1.0
26/02:22pm 9.4 2.7 7.3 87 1.0 NNW 32 50 17 27 1007.1 1007.1 1.0
26/02:00pm 8.6 4.2 7.3 91 0.6 N 20 33 11 18 1007.7 1007.7 0.8
26/01:30pm 9.0 3.7 6.9 87 1.0 N 24 33 13 18 1008.4 1008.4 0.2
26/01:00pm 9.0 2.5 6.4 84 1.2 N 30 43 16 23 1008.9 1009.0 0.0
26/12:30pm 9.1 2.0 6.3 83 1.3 N 33 48 18 26 1009.2 1009.3 0.0
26/12:00pm 8.6 2.8 6.2 85 1.1 N 26 35 14 19 1010.3 1010.4 0.0
26/11:30am 8.7 1.9 5.1 78 1.6 N 30 46 16 25 1011.0 1011.1 0.0
26/11:26am 8.7 2.2 4.9 77 1.7 N 28 46 15 25 1011.0 1011.1 0.0
26/11:00am 8.6 3.3 5.0 78 1.6 N 22 33 12 18 1011.2 1011.3 0.0
26/10:30am 8.5 2.9 5.2 80 1.5 N 24 33 13 18 1011.6 1011.7 0.0
26/10:00am 7.5 2.8 5.0 84 1.1 N 19 26 10 14 1011.9 1012.0 0.0
26/09:30am 7.0 1.6 4.7 85 1.0 NNW 22 28 12 15 1012.1 1012.2 0.0
26/09:00am 6.3 1.9 4.5 88 0.8 NNW 17 22 9 12 1012.2 1012.3 8.6
26/08:30am 5.5 0.5 3.6 87 0.8 NNW 19 26 10 14 1012.3 1012.4 8.6
26/08:00am 4.7 0.7 2.7 87 0.8 N 13 20 7 11 1012.1 1012.2 8.6
26/07:30am 4.0 -0.8 2.8 92 0.5 N 17 20 9 11 1012.3 1012.4 8.6
26/07:00am 4.4 0.5 3.2 92 0.5 NNW 13 19 7 10 1012.3 1012.4 8.6
26/06:30am 5.3 1.5 3.9 91 0.6 NNW 13 17 7 9 1012.0 1012.1 8.6
26/06:00am 5.1 1.2 3.4 89 0.7 NNW 13 15 7 8 1011.8 1011.9 8.6
26/05:30am 4.9 1.8 3.5 91 0.6 NW 9 11 5 6 1011.7 1011.8 8.6
26/05:00am 4.5 0.6 3.3 92 0.5 NNW 13 17 7 9 1011.5 1011.6 8.6
26/04:30am 4.7 0.7 3.0 89 0.7 NNW 13 15 7 8 1011.5 1011.6 8.6
26/04:00am 4.4 1.2 3.2 92 0.5 NNW 9 13 5 7 1011.8 1011.9 8.6
26/03:30am 5.3 1.0 3.4 87 0.8 WNW 15 20 8 11 1011.7 1011.8 8.6
26/03:00am 4.9 0.6 3.5 91 0.6 NNW 15 17 8 9 1011.8 1011.9 8.6
26/02:30am 5.1 1.6 3.7 91 0.6 NW 11 13 6 7 1012.0 1012.1 8.6
26/02:00am 5.9 1.1 4.5 91 0.6 WNW 19 24 10 13 1012.3 1012.4 8.6
26/01:30am 5.1 1.3 3.9 92 0.5 NW 13 17 7 9 1012.1 1012.2 8.2
26/01:00am 5.5 1.3 3.8 89 0.7 WNW 15 30 8 16 1012.0 1012.1 8.0
26/12:30am 4.6 1.4 3.1 90 0.6 NW 9 11 5 6 1011.7 1011.8 8.0
26/12:00am 5.6 1.7 3.5 86 0.9 W 13 17 7 9 1011.9 1012.0 8.0
 
Date/Time
CST
Temp
°C
App
Temp
°C
Dew
Point
°C
Rel
Hum
%
Delta-T
°C
Wind Press
QNH
hPa
Press
MSL
hPa
Rain since
9am
mm
Dir  Spd
km/h
Gust
km/h
Spd
kts
Gust
kts
25/11:30pm 6.2 1.0 3.6 83 1.1 WNW 20 30 11 16 1011.7 1011.8 8.0
25/11:00pm 5.4 1.4 3.0 84 1.0 NW 13 15 7 8 1011.5 1011.6 7.4
25/10:30pm 5.4 1.9 3.5 87 0.8 NW 11 17 6 9 1011.6 1011.7 7.2
25/10:00pm 6.5 1.2 3.2 79 1.4 WNW 20 32 11 17 1011.0 1011.1 7.2
25/09:30pm 5.9 2.0 3.5 84 1.0 WNW 13 20 7 11 1010.9 1011.0 7.2
25/09:00pm 5.9 1.2 3.3 83 1.1 WNW 17 24 9 13 1010.4 1010.5 7.0
25/08:31pm 6.4 -0.3 3.6 82 1.2 W 28 50 15 27 1010.8 1010.9 7.0
25/08:30pm 6.4 0.1 3.6 82 1.2 W 26 50 14 27 1010.9 1011.0 7.0
25/08:12pm 6.5 -0.7 2.9 78 1.5 W 30 56 16 30 1010.7 1010.8 6.6
25/08:10pm 6.6 0.2 3.0 78 1.5 W 26 56 14 30 1010.6 1010.7 6.6
25/08:00pm 6.6 1.3 2.8 77 1.6 WNW 20 26 11 14 1009.9 1010.0 6.4
25/07:30pm 7.2 0.5 3.7 78 1.5 WNW 28 48 15 26 1009.6 1009.7 6.4
25/07:28pm 7.4 0.6 3.2 75 1.8 W 28 48 15 26 1009.8 1009.9 6.4
25/07:09pm 7.8 0.5 2.6 69 2.2 W 30 57 16 31 1009.5 1009.6 6.4
25/07:00pm 7.5 0.5 2.2 69 2.2 WNW 28 39 15 21 1008.9 1009.0 6.4
25/06:45pm 7.5 -0.8 1.9 67 2.3 WNW 35 56 19 30 1008.6 1008.6 6.4
25/06:30pm 7.6 2.0 3.4 75 1.8 WNW 22 39 12 21 1008.6 1008.6 6.2
25/06:00pm 8.3 1.4 2.4 66 2.5 W 28 41 15 22 1007.9 1007.9 6.2
25/05:30pm 8.1 -0.3 3.7 74 1.9 WSW 37 61 20 33 1007.6 1007.6 6.2
25/05:00pm 9.4 1.3 3.2 65 2.7 W 35 57 19 31 1006.7 1006.7 6.2
25/04:44pm 9.9 1.7 2.7 61 3.1 W 35 54 19 29 1006.5 1006.5 6.2
25/04:30pm 10.3 1.7 2.7 59 3.3 W 37 54 20 29 1006.2 1006.2 6.2
25/04:02pm 10.2 3.8 5.4 72 2.2 WNW 28 50 15 27 1005.7 1005.7 6.2
25/04:00pm 10.1 4.1 5.5 73 2.1 WNW 26 35 14 19 1005.7 1005.7 6.2
25/03:30pm 9.6 3.9 6.6 81 1.4 WNW 26 41 14 22 1005.4 1005.4 6.2
25/03:00pm 9.4 2.2 7.5 88 0.9 W 35 54 19 29 1005.2 1005.3 5.8
25/02:50pm 9.1 3.3 7.9 92 0.6 W 28 48 15 26 1005.0 1005.1 5.8
25/02:30pm 8.6 1.9 7.3 91 0.6 W 32 43 17 23 1004.9 1005.0 5.4
25/02:05pm 7.9 -1.2 5.9 87 0.9 WNW 43 74 23 40 1004.4 1004.5 5.0
25/02:02pm 9.2 1.0 8.2 93 0.5 NW 41 74 22 40 1004.8 1004.9 4.8
25/02:00pm 10.6 3.5 9.6 93 0.5 NW 37 74 20 40 1004.4 1004.5 4.6
25/01:30pm 11.3 1.9 8.9 85 1.2 NNW 48 69 26 37 1003.3 1003.4 1.2
25/01:00pm 11.4 3.0 9.8 90 0.8 NNW 44 67 24 36 1003.9 1004.0 1.0
25/12:30pm 12.7 4.8 7.8 72 2.4 NNW 39 61 21 33 1004.3 1004.4 0.2
25/12:28pm 12.7 4.3 7.4 70 2.6 NNW 41 61 22 33 1004.4 1004.5 0.2
25/12:00pm 12.4 4.9 7.9 74 2.2 NNW 37 52 20 28 1005.9 1005.9 0.2
25/11:42am 11.9 4.8 8.0 77 1.9 NNW 35 54 19 29 1006.4 1006.4 0.2
25/11:30am 11.4 4.5 9.0 85 1.2 NNW 35 46 19 25 1006.6 1006.6 0.2
25/11:18am 10.9 4.5 9.3 90 0.8 NNW 33 54 18 29 1007.1 1007.1 0.2
25/11:00am 10.5 4.2 8.9 90 0.8 NNW 32 46 17 25 1007.5 1007.5 0.0
25/10:45am 10.4 4.0 8.6 89 0.9 NNW 32 50 17 27 1008.0 1008.0 0.0
25/10:30am 11.0 5.2 8.1 82 1.4 NNW 28 39 15 21 1008.3 1008.3 0.0
25/10:00am 10.2 5.0 7.3 82 1.4 N 24 33 13 18 1008.6 1008.6 0.0
25/09:30am 9.0 3.2 6.2 82 1.3 NNW 26 35 14 19 1009.1 1009.2 0.0
25/09:00am 8.0 3.4 5.6 85 1.1 NNW 19 26 10 14 1009.4 1009.5 6.0
25/08:30am 7.4 3.1 5.2 86 1.0 N 17 26 9 14 1009.7 1009.8 6.0
25/08:00am 6.0 2.3 4.4 89 0.7 N 13 17 7 9 1009.8 1009.9 6.0
25/07:30am 5.6 1.5 4.2 91 0.6 NNW 15 20 8 11 1010.0 1010.1 6.0
25/07:00am 4.8 1.3 3.6 92 0.5 NNW 11 15 6 8 1010.0 1010.1 6.0
25/06:30am 4.6 0.3 3.1 90 0.6 NNW 15 17 8 9 1010.0 1010.1 6.0
25/06:00am 4.9 1.4 3.7 92 0.5 NNW 11 15 6 8 1010.0 1010.1 6.0
25/05:30am 5.4 2.1 4.7 95 0.3 NNW 11 15 6 8 1009.8 1009.9 6.0
25/05:00am 6.3 3.3 5.9 97 0.2 NW 11 13 6 7 1009.7 1009.8 6.0
25/04:30am 6.6 4.5 5.9 95 0.3 NW 6 9 3 5 1009.5 1009.6 6.0
25/04:00am 7.6 4.4 7.0 96 0.3 WNW 13 17 7 9 1009.1 1009.2 5.8
25/03:30am 7.4 4.5 6.5 94 0.4 WNW 11 15 6 8 1008.8 1008.9 5.4
25/03:00am 8.1 3.8 7.2 94 0.4 W 19 26 10 14 1008.5 1008.5 5.4
25/02:30am 6.9 3.9 6.2 95 0.3 NW 11 15 6 8 1008.4 1008.4 5.4
25/02:00am 6.4 3.0 5.7 95 0.3 NW 13 15 7 8 1008.2 1008.2 5.0
25/01:30am 5.6 2.4 5.1 97 0.2 NNW 11 13 6 7 1007.5 1007.5 5.0
25/01:00am 5.8 1.9 5.3 97 0.2 NW 15 19 8 10 1007.1 1007.1 5.0
25/12:30am 5.4 1.8 4.9 97 0.2 NW 13 19 7 10 1006.6 1006.6 4.8
25/12:00am 4.8 1.5 4.3 97 0.2 NW 11 15 6 8 1006.3 1006.3 4.8
 
Date/Time
CST
Temp
°C
App
Temp
°C
Dew
Point
°C
Rel
Hum
%
Delta-T
°C
Wind Press
QNH
hPa
Press
MSL
hPa
Rain since
9am
mm
Dir  Spd
km/h
Gust
km/h
Spd
kts
Gust
kts
24/11:30pm 4.6 0.8 3.9 95 0.3 NNW 13 20 7 11 1006.2 1006.2 4.8
24/11:00pm 5.0 0.5 4.3 95 0.3 N 17 22 9 12 1005.8 1005.8 4.8
24/10:30pm 5.0 0.5 4.3 95 0.3 N 17 20 9 11 1005.6 1005.6 4.8
24/10:00pm 5.0 1.3 4.3 95 0.3 NNW 13 19 7 10 1005.5 1005.5 4.8
24/09:30pm 5.4 1.3 4.5 94 0.4 NNW 15 19 8 10 1005.4 1005.4 4.8

Other Formats:

Comma delimited format used in spreadsheet applications
http://www.bom.gov.au/fwo/IDS60801/IDS60801.94817.axf

JavaScript Object Notation format (JSON) in row-major order
http://www.bom.gov.au/fwo/IDS60801/IDS60801.94817.json